Time;durP1;ratioP1;P1;durP2;ratioP2;P2;SDS_P1;SDS_P2;PMS_P1;PMS_P2;Temp;Humidity;BMP_temperature;BMP_pressure;BME280_temperature;BME280_humidity;BME280_pressure;Samples;Min_cycle;Max_cycle;Signal;HPM_P1;HPM_P2
2022/05/03 00:00:09;;;;;;;3.92;2.42;;;;;;;15.30;86.06;100087.97;5053067;28;20234;-76
2022/05/03 00:02:48;;;;;;;3.78;2.47;;;;;;;15.36;85.91;100067.03;5059460;28;20214;-76
2022/05/03 00:05:24;;;;;;;4.03;2.40;;;;;;;15.25;87.21;100080.13;5059722;28;20210;-77
2022/05/03 00:08:03;;;;;;;3.25;2.40;;;;;;;15.26;87.42;100076.66;5060105;28;20802;-76
2022/05/03 00:10:39;;;;;;;2.28;2.10;;;;;;;15.13;88.43;100085.38;5015440;28;20203;-76
2022/05/03 00:13:09;;;;;;;5.95;2.38;;;;;;;14.88;89.78;100040.22;5050899;28;20207;-77
2022/05/03 00:15:39;;;;;;;4.70;2.40;;;;;;;15.18;89.34;100094.09;5051249;28;20207;-77
2022/05/03 00:18:08;;;;;;;6.13;2.60;;;;;;;15.08;89.99;100061.06;5051674;28;20604;-77
2022/05/03 00:20:37;;;;;;;4.03;2.45;;;;;;;14.93;90.38;100042.81;5051517;28;20222;-77
2022/05/03 00:23:04;;;;;;;4.55;2.67;;;;;;;15.06;90.98;100075.84;5050830;28;20211;-77
2022/05/03 00:25:31;;;;;;;2.38;2.17;;;;;;;14.97;92.44;100073.28;5050316;28;20196;-77
2022/05/03 00:27:59;;;;;;;5.25;2.35;;;;;;;14.88;93.83;100074.16;5050475;28;20311;-72
2022/05/03 00:30:28;;;;;;;2.38;2.28;;;;;;;14.32;94.92;100014.22;5050710;28;20200;-77
2022/05/03 00:32:55;;;;;;;2.58;2.38;;;;;;;14.46;94.81;100021.19;5050837;28;20203;-77
2022/05/03 00:35:24;;;;;;;2.60;2.40;;;;;;;14.51;96.37;100048.13;5050346;28;20198;-77
2022/05/03 00:37:52;;;;;;;5.68;2.47;;;;;;;14.71;96.36;100080.28;5015897;28;20202;-76
2022/05/03 00:40:21;;;;;;;5.18;2.67;;;;;;;14.77;95.69;100072.44;5050972;28;20230;-77
2022/05/03 00:42:56;;;;;;;2.92;2.67;;;;;;;14.81;96.34;100072.44;5051482;28;20290;-76
2022/05/03 00:45:30;;;;;;;3.80;2.72;;;;;;;14.69;96.81;100056.81;5051571;28;20579;-76
2022/05/03 00:48:07;;;;;;;3.17;2.97;;;;;;;14.71;97.71;100069.84;5050180;28;20226;-76
2022/05/03 00:50:38;;;;;;;7.70;2.72;;;;;;;14.21;99.61;100015.97;5016669;28;20223;-76
2022/05/03 00:53:18;;;;;;;2.97;2.78;;;;;;;14.43;100.00;100055.09;5050348;28;20660;-76
2022/05/03 00:56:15;;;;;;;2.35;2.25;;;;;;;14.27;100.00;100060.28;5050174;28;20231;-76
2022/05/03 00:59:08;;;;;;;4.78;2.83;;;;;;;14.56;100.00;100068.13;5050555;28;20231;-76
2022/05/03 01:01:45;;;;;;;4.70;3.10;;;;;;;14.48;100.00;100055.97;5014936;28;20659;-76
2022/05/03 01:04:24;;;;;;;2.85;2.65;;;;;;;14.38;100.00;100044.66;5020279;28;20589;-77
2022/05/03 01:07:14;;;;;;;3.08;2.70;;;;;;;14.15;100.00;100029.00;5063809;28;20214;-75
2022/05/03 01:09:44;;;;;;;3.15;2.80;;;;;;;14.19;100.00;100043.78;5034672;28;20294;-76
2022/05/03 01:12:24;;;;;;;3.72;2.65;;;;;;;13.95;100.00;100033.34;5050162;28;20209;-76
2022/05/03 01:15:08;;;;;;;4.22;2.72;;;;;;;14.13;100.00;100061.16;5050637;28;20238;-76
2022/05/03 01:17:41;;;;;;;3.65;2.67;;;;;;;14.05;100.00;100040.31;5046844;28;20203;-76
2022/05/03 01:20:10;;;;;;;2.72;2.47;;;;;;;13.95;100.00;100054.19;5049780;28;20192;-76
2022/05/03 01:23:03;;;;;;;3.65;3.22;;;;;;;14.21;100.00;100062.91;5049952;28;20649;-76
2022/05/03 01:25:51;;;;;;;2.97;2.78;;;;;;;14.23;100.00;100050.72;5049820;28;20606;-76
2022/05/03 01:28:27;;;;;;;3.17;2.88;;;;;;;14.31;100.00;100072.47;5049156;28;20223;-76
2022/05/03 01:30:58;;;;;;;5.75;2.95;;;;;;;14.30;100.00;100075.09;5013636;28;20200;-76
2022/05/03 01:33:32;;;;;;;4.85;3.35;;;;;;;14.20;100.00;100057.69;5034286;28;20205;-76
2022/05/03 01:36:00;;;;;;;3.30;3.10;;;;;;;14.17;100.00;100057.69;5006502;28;20265;-76
2022/05/03 01:38:37;;;;;;;3.38;3.08;;;;;;;14.06;100.00;100031.59;5053637;28;20195;-76
2022/05/03 01:41:14;;;;;;;8.30;3.13;;;;;;;14.16;100.00;100050.75;5053329;28;20207;-76
2022/05/03 01:43:58;;;;;;;2.90;2.70;;;;;;;14.09;100.00;100073.31;5053199;28;20199;-77
2022/05/03 01:46:30;;;;;;;4.78;2.90;;;;;;;13.82;100.00;100047.25;5053465;28;20245;-76
2022/05/03 01:52:24;;;;;;;4.28;3.10;;;;;;;14.04;100.00;100085.50;5053283;28;20288;-76
2022/05/03 01:55:10;;;;;;;3.97;3.40;;;;;;;14.02;100.00;100075.94;5051675;28;20234;-76
2022/05/03 01:57:51;;;;;;;3.67;3.38;;;;;;;13.95;100.00;100075.03;5051486;28;20294;-77
2022/05/03 02:00:21;;;;;;;6.30;3.15;;;;;;;13.81;100.00;100050.69;5053434;28;20200;-76
2022/05/03 02:02:57;;;;;;;3.47;3.17;;;;;;;13.85;100.00;100065.47;5053337;28;20290;-76
2022/05/03 02:05:42;;;;;;;3.72;3.25;;;;;;;13.85;100.00;100055.06;5052984;28;20203;-76
2022/05/03 02:08:11;;;;;;;8.02;3.17;;;;;;;13.88;100.00;100073.28;5052223;28;20223;-76
2022/05/03 02:10:58;;;;;;;3.63;3.28;;;;;;;13.65;100.00;100022.91;5053189;28;20207;-76
2022/05/03 02:16:45;;;;;;;4.20;3.28;;;;;;;13.64;100.00;100068.03;5025429;28;20287;-76
2022/05/03 02:19:34;;;;;;;5.10;3.00;;;;;;;13.52;100.00;100047.19;5030478;28;20208;-76
2022/05/03 02:22:13;;;;;;;3.42;3.13;;;;;;;13.44;100.00;100069.75;5029901;28;20211;-76
2022/05/03 02:24:49;;;;;;;3.13;2.85;;;;;;;13.23;100.00;100031.47;5021550;28;20564;-76
2022/05/03 02:27:19;;;;;;;3.28;3.00;;;;;;;13.29;100.00;100058.41;5021247;28;20199;-76
2022/05/03 02:29:47;;;;;;;3.00;2.80;;;;;;;13.13;100.00;99995.84;5030554;28;20295;-76
2022/05/03 02:32:23;;;;;;;4.47;3.30;;;;;;;13.75;100.00;100071.53;5030719;28;20200;-76
2022/05/03 02:34:59;;;;;;;6.35;3.25;;;;;;;13.49;100.00;100052.38;4980523;28;20286;-76
2022/05/03 02:37:35;;;;;;;3.78;3.33;;;;;;;13.61;100.00;100055.03;5029668;28;20691;-76
2022/05/03 02:40:04;;;;;;;3.75;3.13;;;;;;;13.61;100.00;100073.25;5029782;28;20207;-76
2022/05/03 02:42:33;;;;;;;5.13;3.22;;;;;;;13.46;100.00;100068.00;5029202;28;20200;-76
2022/05/03 02:45:02;;;;;;;10.40;3.30;;;;;;;13.44;100.00;100073.22;4994999;28;20274;-76
2022/05/03 02:47:33;;;;;;;9.15;3.45;;;;;;;13.26;100.00;100070.53;5029876;28;20224;-76
2022/05/03 02:50:10;;;;;;;7.25;3.38;;;;;;;13.31;100.00;100064.47;4980178;28;20259;-76
2022/05/03 02:52:57;;;;;;;6.65;3.83;;;;;;;13.26;100.00;100066.22;5029600;28;20200;-76
2022/05/03 02:55:33;;;;;;;3.72;3.30;;;;;;;13.31;100.00;100054.06;5047664;28;20262;-76
2022/05/03 02:58:06;;;;;;;4.28;3.63;;;;;;;13.32;100.00;100055.81;4984898;28;20650;-76
2022/05/03 03:03:56;;;;;;;6.32;4.45;;;;;;;13.13;100.00;100068.72;5052001;28;20305;-76
2022/05/03 03:06:25;;;;;;;5.45;4.00;;;;;;;12.66;100.00;100029.44;5052025;28;20191;-76
2022/05/03 03:08:55;;;;;;;4.55;4.15;;;;;;;12.81;100.00;100045.13;5013197;28;20703;-76
2022/05/03 03:11:33;;;;;;;7.70;4.50;;;;;;;12.76;100.00;100068.53;5042531;28;20588;-76
2022/05/03 03:14:21;;;;;;;4.82;4.25;;;;;;;12.79;100.00;100057.25;5051550;28;20199;-75
2022/05/03 03:16:55;;;;;;;5.50;3.75;;;;;;;12.71;100.00;100054.63;4989895;28;20222;-75
2022/05/03 03:19:46;;;;;;;7.88;3.95;;;;;;;12.72;100.00;100061.56;4989749;28;20288;-76
2022/05/03 03:22:16;;;;;;;6.72;4.72;;;;;;;13.07;100.00;100058.28;4931817;29;20283;-76
2022/05/03 03:24:43;;;;;;;10.57;4.57;;;;;;;12.99;100.00;100080.78;4932490;29;20211;-76
2022/05/03 03:27:11;;;;;;;7.97;4.18;;;;;;;13.22;100.00;100076.59;4931545;29;20700;-77
2022/05/03 03:29:39;;;;;;;9.93;4.75;;;;;;;13.13;100.00;100040.09;4913246;29;20796;-75
2022/05/03 03:32:08;;;;;;;6.70;4.30;;;;;;;13.16;100.00;100048.78;4929372;29;20212;-76
2022/05/03 03:34:36;;;;;;;11.63;3.97;;;;;;;13.27;100.00;100070.53;4931954;29;20621;-75
2022/05/03 03:37:07;;;;;;;5.53;4.50;;;;;;;13.20;100.00;100078.31;4931687;29;20286;-75
2022/05/03 03:39:36;;;;;;;9.73;4.80;;;;;;;13.49;100.00;100081.03;4932072;29;20251;-77
2022/05/03 03:42:05;;;;;;;5.07;4.38;;;;;;;13.36;100.00;100087.94;4899196;29;20648;-76
2022/05/03 03:44:32;;;;;;;8.35;4.22;;;;;;;13.35;100.00;100087.06;4900451;29;20208;-75
2022/05/03 03:46:59;;;;;;;5.35;4.47;;;;;;;13.47;100.00;100090.59;4931790;29;20200;-76
2022/05/03 03:49:26;;;;;;;6.68;5.00;;;;;;;13.52;100.00;100088.88;4932146;29;20235;-76
2022/05/03 03:51:53;;;;;;;9.55;4.40;;;;;;;13.41;100.00;100065.41;4900332;29;20203;-76
2022/05/03 03:54:21;;;;;;;10.32;4.45;;;;;;;13.33;100.00;100064.50;4975566;28;20236;-77
2022/05/03 03:56:51;;;;;;;6.75;4.07;;;;;;;13.37;100.00;100081.88;4992702;28;20201;-76
2022/05/03 03:59:19;;;;;;;9.90;4.45;;;;;;;13.25;100.00;100082.69;5033469;28;20207;-76
2022/05/03 04:01:48;;;;;;;6.32;3.90;;;;;;;13.26;100.00;100097.47;5051382;28;20207;-76
2022/05/03 04:04:17;;;;;;;4.28;3.90;;;;;;;12.99;100.00;100029.59;5055316;28;20214;-76
2022/05/03 04:06:43;;;;;;;6.20;4.10;;;;;;;13.37;100.00;100082.75;5063961;28;20617;-76
2022/05/03 04:09:10;;;;;;;4.30;3.90;;;;;;;13.17;100.00;100102.59;5059889;28;20242;-76
2022/05/03 04:11:44;;;;;;;5.45;4.60;;;;;;;13.10;100.00;100074.81;5060306;28;20206;-76
2022/05/03 04:14:12;;;;;;;7.63;4.70;;;;;;;12.90;100.00;100034.78;5063990;28;20734;-77
2022/05/03 04:16:39;;;;;;;6.00;3.83;;;;;;;12.89;100.00;100074.66;5053614;28;20207;-75
2022/05/03 04:19:07;;;;;;;4.38;3.97;;;;;;;13.24;100.00;100095.69;5062775;28;20214;-76
2022/05/03 04:21:33;;;;;;;6.85;4.28;;;;;;;13.08;100.00;100060.91;5029842;28;20207;-76
2022/05/03 04:24:00;;;;;;;8.05;4.47;;;;;;;12.84;100.00;100072.03;5050893;28;20210;-77
2022/05/03 04:26:27;;;;;;;6.47;4.60;;;;;;;13.09;100.00;100093.88;5050520;28;20204;-77
2022/05/03 04:28:56;;;;;;;5.22;4.20;;;;;;;12.88;100.00;100049.50;5050481;28;20317;-77
2022/05/03 04:31:26;;;;;;;9.75;5.03;;;;;;;13.24;100.00;100093.97;5050890;28;20597;-74
2022/05/03 04:33:53;;;;;;;6.85;4.45;;;;;;;13.09;100.00;100096.47;5050309;28;20286;-77
2022/05/03 04:36:21;;;;;;;9.07;4.78;;;;;;;13.19;100.00;100098.28;5050189;28;20640;-77
2022/05/03 04:38:47;;;;;;;4.97;4.38;;;;;;;13.11;100.00;100094.78;5050383;28;20265;-75
2022/05/03 04:41:15;;;;;;;9.95;4.95;;;;;;;13.30;100.00;100093.13;5050527;28;20925;-76
2022/05/03 04:43:42;;;;;;;6.18;4.53;;;;;;;13.23;100.00;100102.66;5050444;28;20663;-75
2022/05/03 04:46:09;;;;;;;11.57;5.65;;;;;;;13.33;100.00;100094.00;5049722;28;20207;-76
2022/05/03 04:48:37;;;;;;;9.63;5.03;;;;;;;13.10;100.00;100103.44;5050723;28;20227;-75
2022/05/03 04:51:04;;;;;;;10.48;6.57;;;;;;;12.99;100.00;100107.69;5030801;28;20286;-76
2022/05/03 04:53:32;;;;;;;12.38;6.30;;;;;;;12.95;100.00;100071.25;5050709;28;20257;-76
2022/05/03 04:55:58;;;;;;;10.38;5.93;;;;;;;13.04;100.00;100111.19;5050432;28;20235;-76
2022/05/03 04:58:25;;;;;;;11.60;5.47;;;;;;;13.19;100.00;100118.25;5050001;28;20195;-76
2022/05/03 05:00:52;;;;;;;6.95;5.78;;;;;;;13.00;100.00;100114.63;5050445;28;20204;-75
2022/05/03 05:03:19;;;;;;;14.02;5.32;;;;;;;12.93;100.00;100108.53;5050610;28;20222;-77
2022/05/03 05:05:47;;;;;;;7.53;5.57;;;;;;;12.85;100.00;100110.22;5052401;28;20573;-77
2022/05/03 05:08:14;;;;;;;5.80;4.65;;;;;;;12.65;100.00;100121.34;5034371;28;20232;-77
2022/05/03 05:10:40;;;;;;;8.15;4.65;;;;;;;12.67;100.00;100124.81;5044600;28;20195;-77
2022/05/03 05:13:07;;;;;;;3.47;3.17;;;;;;;12.38;100.00;100127.19;5053935;28;20245;-77
2022/05/03 05:15:34;;;;;;;11.15;5.70;;;;;;;12.58;100.00;100127.38;5053655;28;20253;-77
2022/05/03 05:18:01;;;;;;;4.68;3.53;;;;;;;12.02;100.00;100054.13;5053937;28;20265;-76
2022/05/03 05:20:28;;;;;;;9.00;6.07;;;;;;;12.68;100.00;100123.97;5052920;28;20239;-76
2022/05/03 05:22:56;;;;;;;7.15;5.60;;;;;;;12.95;100.00;100125.91;5053732;28;20203;-78
2022/05/03 05:25:26;;;;;;;7.78;5.78;;;;;;;12.66;100.00;100136.09;5053988;28;20686;-75
2022/05/03 05:27:52;;;;;;;14.15;5.93;;;;;;;12.47;100.00;100077.00;5035288;28;20628;-77
2022/05/03 05:30:19;;;;;;;19.33;5.75;;;;;;;12.83;100.00;100137.97;5053709;28;20227;-83
2022/05/03 05:32:46;;;;;;;6.75;5.38;;;;;;;12.56;100.00;100075.31;5035369;28;20203;-79
2022/05/03 05:35:13;;;;;;;8.88;5.97;;;;;;;12.90;100.00;100105.91;5053431;28;20678;-83
2022/05/03 05:37:40;;;;;;;10.32;6.45;;;;;;;13.10;100.00;100126.88;5053987;28;20257;-76
2022/05/03 05:40:09;;;;;;;8.05;6.35;;;;;;;13.25;100.00;100123.47;5035094;28;20715;-76
2022/05/03 05:42:36;;;;;;;7.18;5.38;;;;;;;13.07;100.00;100120.75;5058427;28;20235;-76
2022/05/03 05:45:04;;;;;;;9.77;5.53;;;;;;;13.14;100.00;100133.84;5068992;28;20203;-76
2022/05/03 05:47:30;;;;;;;7.70;4.95;;;;;;;12.89;100.00;100116.31;5059508;28;20203;-74
2022/05/03 05:49:57;;;;;;;9.50;5.63;;;;;;;13.22;100.00;100142.56;5057339;28;20231;-74
2022/05/03 05:55:13;;;;;;;13.80;7.63;;;;;;;12.99;100.00;99961.06;5054113;28;20246;-78
2022/05/03 05:58:06;;;;;;;;;;;;;;;;;;;;;
2022/05/03 06:00:33;;;;;;;15.15;5.90;;;;;;;14.47;100.00;100086.41;5035358;28;20588;-77
2022/05/03 06:03:01;;;;;;;10.00;5.72;;;;;;;14.11;100.00;99962.09;5053343;28;20196;-78
2022/05/03 06:05:38;;;;;;;;;;;;;;;;;;;;;
2022/05/03 06:08:06;;;;;;;8.07;5.22;;;;;;;15.29;100.00;100173.28;5034095;28;20199;-78
2022/05/03 06:10:35;;;;;;;5.50;4.30;;;;;;;14.44;100.00;100112.50;5017736;28;20223;-77
2022/05/03 06:13:03;;;;;;;13.45;5.00;;;;;;;14.52;100.00;100130.78;5052928;28;20595;-77
2022/05/03 06:15:33;;;;;;;10.25;5.00;;;;;;;14.47;100.00;100166.41;5052463;28;20210;-76
2022/05/03 06:18:01;;;;;;;10.88;5.47;;;;;;;13.60;100.00;99972.50;5017313;28;20203;-77
2022/05/03 06:20:30;;;;;;;10.23;5.07;;;;;;;13.84;100.00;100009.03;5052885;28;20584;-77
2022/05/03 06:22:57;;;;;;;14.30;4.78;;;;;;;14.35;100.00;100170.75;5053178;28;20191;-76
2022/05/03 06:25:24;;;;;;;8.52;4.88;;;;;;;14.28;100.00;100173.31;5052844;28;20208;-76
2022/05/03 06:27:52;;;;;;;16.25;5.45;;;;;;;14.37;100.00;100165.56;5052700;28;20222;-74
2022/05/03 06:30:19;;;;;;;4.57;4.18;;;;;;;14.04;100.00;100153.28;5052370;28;20765;-74
2022/05/03 06:32:46;;;;;;;7.20;6.05;;;;;;;14.24;100.00;100172.44;5052712;28;20203;-75
2022/05/03 06:35:14;;;;;;;10.88;6.22;;;;;;;14.38;100.00;100160.31;5052184;28;20200;-75
2022/05/03 06:37:42;;;;;;;7.50;5.90;;;;;;;14.36;100.00;100149.03;5052077;28;20701;-75
2022/05/03 06:40:10;;;;;;;10.63;5.78;;;;;;;14.44;100.00;100179.47;5052295;28;20227;-75
2022/05/03 06:42:38;;;;;;;7.68;5.65;;;;;;;14.37;100.00;100147.28;5051697;28;20207;-75
2022/05/03 06:45:08;;;;;;;6.13;4.72;;;;;;;14.48;100.00;100181.22;5051855;28;20601;-75
2022/05/03 06:47:35;;;;;;;8.65;5.40;;;;;;;14.42;100.00;100176.84;5033898;28;20196;-75
2022/05/03 06:50:02;;;;;;;11.13;5.13;;;;;;;13.98;100.00;100168.91;5052152;28;20223;-75
2022/05/03 06:52:55;;;;;;;6.63;5.75;;;;;;;14.25;100.00;100184.63;5052033;28;20203;-75
2022/05/03 06:55:22;;;;;;;7.30;5.63;;;;;;;14.15;100.00;100188.09;4970684;28;20226;-75
2022/05/03 06:57:49;;;;;;;10.85;5.63;;;;;;;14.08;100.00;100180.22;4970680;28;20253;-75
2022/05/03 07:00:18;;;;;;;5.28;4.63;;;;;;;14.28;100.00;100197.66;4954416;28;20210;-78
2022/05/03 07:02:45;;;;;;;12.70;5.95;;;;;;;15.05;100.00;100157.69;4970486;28;20214;-78
2022/05/03 07:05:11;;;;;;;5.88;4.97;;;;;;;15.94;100.00;100193.13;4970840;28;20574;-74
2022/05/03 07:07:39;;;;;;;9.05;5.53;;;;;;;15.44;100.00;100195.03;4970558;28;20217;-77
2022/05/03 07:10:07;;;;;;;9.45;5.15;;;;;;;14.53;100.00;100210.75;4970660;28;20279;-75
2022/05/03 07:12:34;;;;;;;6.57;5.85;;;;;;;14.09;100.00;100177.59;4970489;28;20712;-75
2022/05/03 07:15:01;;;;;;;8.25;5.15;;;;;;;14.16;100.00;100200.22;4970575;28;20592;-75
2022/05/03 07:22:58;;;;;;;7.35;5.57;;;;;;;13.94;100.00;100156.75;4970176;28;20252;-76
2022/05/03 07:25:25;;;;;;;8.35;6.22;;;;;;;14.54;100.00;100210.78;4990413;28;20227;-77
2022/05/03 07:27:53;;;;;;;11.60;6.78;;;;;;;14.49;100.00;100203.78;5050564;28;20208;-76
2022/05/03 07:30:20;;;;;;;7.90;5.88;;;;;;;14.50;100.00;100184.69;5051386;28;20239;-76
2022/05/03 07:32:48;;;;;;;10.65;6.38;;;;;;;14.61;100.00;100180.34;5050919;28;20249;-74
2022/05/03 07:35:15;;;;;;;8.90;5.90;;;;;;;14.49;100.00;100206.41;5051110;28;20199;-74
2022/05/03 07:37:43;;;;;;;8.52;6.32;;;;;;;14.73;100.00;100188.19;5051145;28;20200;-74
2022/05/03 07:40:11;;;;;;;12.10;7.28;;;;;;;14.97;100.00;100216.88;5050848;28;20257;-77
2022/05/03 07:42:38;;;;;;;22.77;6.50;;;;;;;15.00;100.00;100184.66;5051143;28;20206;-77
2022/05/03 07:45:06;;;;;;;7.40;6.15;;;;;;;15.13;100.00;100210.75;5050749;28;20191;-77
2022/05/03 07:47:33;;;;;;;8.25;6.00;;;;;;;15.58;100.00;100225.50;5050736;28;20195;-76
2022/05/03 07:50:02;;;;;;;13.10;6.65;;;;;;;16.13;100.00;100220.91;5050715;28;20219;-76
2022/05/03 07:52:28;;;;;;;9.55;6.35;;;;;;;16.52;100.00;100193.63;5050872;28;20199;-76
2022/05/03 07:54:56;;;;;;;6.47;5.00;;;;;;;15.97;100.00;100229.72;5050590;28;20318;-76
2022/05/03 07:57:23;;;;;;;11.23;5.85;;;;;;;15.42;100.00;100186.31;5031809;28;20269;-77
2022/05/03 07:59:54;;;;;;;5.95;4.35;;;;;;;15.73;100.00;100232.44;5050516;28;20218;-75
2022/05/03 08:02:22;;;;;;;6.45;4.65;;;;;;;15.70;100.00;100227.19;5050739;28;20203;-76
2022/05/03 08:04:49;;;;;;;9.55;5.38;;;;;;;15.87;100.00;100241.09;5050773;28;20203;-75
2022/05/03 08:07:18;;;;;;;9.23;5.53;;;;;;;16.65;100.00;100238.94;5050598;28;20196;-75
2022/05/03 08:09:45;;;;;;;5.90;4.68;;;;;;;15.87;100.00;100238.47;5050709;28;20219;-75
2022/05/03 08:12:12;;;;;;;12.13;5.70;;;;;;;16.24;100.00;100234.81;5050686;28;20207;-75
2022/05/03 08:14:41;;;;;;;7.90;5.50;;;;;;;16.70;100.00;100240.63;5050613;28;20207;-75
2022/05/03 08:17:08;;;;;;;9.93;5.18;;;;;;;16.32;100.00;100193.75;5051196;28;20206;-75
2022/05/03 08:19:36;;;;;;;8.45;5.50;;;;;;;16.46;100.00;100221.59;5050455;28;20277;-74
2022/05/03 08:22:03;;;;;;;5.82;3.70;;;;;;;15.91;100.00;100214.03;5050294;28;20195;-74
2022/05/03 08:24:31;;;;;;;8.77;5.35;;;;;;;16.18;100.00;100240.06;5050076;28;20195;-75
2022/05/03 08:26:59;;;;;;;9.18;5.85;;;;;;;16.35;100.00;100233.00;5050068;28;20214;-74
2022/05/03 08:29:27;;;;;;;10.27;5.28;;;;;;;16.77;100.00;100231.84;5050131;28;20219;-75
2022/05/03 08:31:54;;;;;;;7.60;5.38;;;;;;;16.53;100.00;100238.97;5050171;28;20682;-74
2022/05/03 08:34:21;;;;;;;7.88;5.20;;;;;;;16.86;100.00;100238.78;5050538;28;20272;-75
2022/05/03 08:42:01;;;;;;;7.07;5.20;;;;;;;16.54;100.00;100253.81;5050160;28;20688;-75
2022/05/03 08:42:20;;;;;;;10.48;4.95;;;;;;;17.93;92.46;100205.34;5054743;28;20210;-75
2022/05/03 08:44:47;;;;;;;5.80;5.10;;;;;;;17.64;94.55;100236.31;5054273;28;20191;-75
2022/05/03 08:47:17;;;;;;;6.75;5.22;;;;;;;17.67;93.09;100238.91;5018952;28;20195;-75
2022/05/03 08:49:53;;;;;;;6.80;4.60;;;;;;;18.27;88.28;100243.38;5019042;28;20230;-75
2022/05/03 08:52:23;;;;;;;9.55;5.20;;;;;;;17.41;92.89;100230.44;5053934;28;20646;-73
2022/05/03 08:54:51;;;;;;;6.07;4.32;;;;;;;17.47;93.72;100241.72;5054101;28;20235;-75
2022/05/03 08:57:19;;;;;;;6.85;4.50;;;;;;;17.11;93.58;100227.22;5035665;28;20210;-75
2022/05/03 08:59:48;;;;;;;8.25;4.80;;;;;;;17.59;88.00;100217.13;5054329;28;20192;-74
2022/05/03 09:02:15;;;;;;;5.00;4.47;;;;;;;17.98;86.68;100229.75;5053871;28;20203;-74
2022/05/03 09:04:42;;;;;;;11.25;4.65;;;;;;;18.20;83.31;100241.72;5053771;28;20707;-74
2022/05/03 09:07:20;;;;;;;8.15;4.57;;;;;;;17.57;88.39;100239.88;5053726;28;20200;-75
2022/05/03 09:09:48;;;;;;;7.32;4.00;;;;;;;17.22;91.05;100217.50;5054019;28;20265;-75
2022/05/03 09:12:27;;;;;;;5.53;4.03;;;;;;;17.29;93.97;100242.75;5053605;28;20196;-75
2022/05/03 09:14:57;;;;;;;5.38;4.22;;;;;;;16.66;98.35;100225.81;5035563;28;20203;-75
2022/05/03 09:17:38;;;;;;;4.30;3.85;;;;;;;17.11;94.96;100235.06;5053696;28;20241;-75
2022/05/03 09:25:40;;;;;;;5.38;3.15;;;;;;;16.58;94.28;100240.75;5053541;28;20269;-75
2022/05/03 09:28:09;;;;;;;4.25;3.85;;;;;;;17.19;92.86;100250.72;5054234;28;20204;-76
2022/05/03 09:30:36;;;;;;;4.97;4.47;;;;;;;17.05;92.25;100242.97;5053209;28;20227;-75
2022/05/03 09:33:02;;;;;;;5.40;3.95;;;;;;;17.63;88.66;100230.19;5053521;28;20207;-75
2022/05/03 09:35:34;;;;;;;8.40;3.85;;;;;;;17.60;90.38;100231.97;5053205;28;20627;-75
2022/05/03 09:38:03;;;;;;;5.00;3.80;;;;;;;17.55;89.07;100215.41;5053372;28;20206;-75
2022/05/03 09:40:35;;;;;;;6.80;3.55;;;;;;;17.70;84.87;100249.34;5053692;28;20203;-75
2022/05/03 09:43:02;;;;;;;4.03;3.33;;;;;;;16.92;87.81;100167.13;5053352;28;20218;-74
2022/05/03 09:45:30;;;;;;;3.22;2.97;;;;;;;17.39;84.66;100232.19;5053001;28;20201;-74
2022/05/03 09:47:59;;;;;;;4.40;3.42;;;;;;;17.65;80.49;100240.69;5052874;28;20200;-74
2022/05/03 09:50:28;;;;;;;6.55;3.60;;;;;;;17.08;83.22;100197.56;5052632;28;20219;-75
2022/05/03 09:52:56;;;;;;;3.63;3.33;;;;;;;17.79;82.50;100238.75;5053636;28;20196;-75
2022/05/03 09:55:30;;;;;;;5.00;3.33;;;;;;;18.26;80.68;100239.00;5053072;28;20246;-77
2022/05/03 09:58:01;;;;;;;8.45;3.83;;;;;;;17.88;79.91;100228.16;5052937;28;20199;-76
2022/05/03 10:00:28;;;;;;;3.75;3.42;;;;;;;18.25;76.82;100245.16;5052831;28;20214;-76
2022/05/03 10:02:56;;;;;;;10.38;3.55;;;;;;;17.97;78.31;100219.31;5052572;28;20206;-76
2022/05/03 10:05:23;;;;;;;3.97;3.60;;;;;;;18.91;75.26;100252.06;5053357;28;20433;-75
2022/05/03 10:07:51;;;;;;;6.55;3.50;;;;;;;19.18;71.31;100215.72;5049337;28;20555;-76
2022/05/03 10:10:18;;;;;;;8.32;3.40;;;;;;;19.08;69.40;100224.66;5042680;28;20231;-75
2022/05/03 10:12:46;;;;;;;4.88;3.35;;;;;;;19.69;67.63;100234.91;5032693;28;20192;-75
2022/05/03 10:20:35;;;;;;;5.68;3.63;;;;;;;20.08;63.97;100241.13;5032904;28;20204;-75
2022/05/03 10:20:50;;;;;;;3.80;2.88;;;;;;;19.82;64.22;100225.03;5003074;28;20207;-75
2022/05/03 10:23:21;;;;;;;2.90;2.60;;;;;;;19.62;63.68;100164.91;5032517;28;20224;-76
2022/05/03 10:25:55;;;;;;;4.70;2.47;;;;;;;19.47;63.04;100185.41;5014435;28;20208;-77
2022/05/03 10:28:22;;;;;;;2.70;2.50;;;;;;;19.35;63.24;100243.44;5032428;28;20202;-76
2022/05/03 10:31:09;;;;;;;5.95;3.45;;;;;;;18.88;64.61;100241.63;5032302;28;20231;-76
2022/05/03 10:33:41;;;;;;;3.10;2.40;;;;;;;19.10;62.65;100188.69;5032738;28;20196;-76
2022/05/03 10:36:45;;;;;;;2.80;2.60;;;;;;;19.66;61.36;100226.22;5032305;28;20200;-76
2022/05/03 10:39:25;;;;;;;3.65;2.50;;;;;;;19.74;59.25;100188.34;5032171;28;20462;-76
2022/05/03 10:41:56;;;;;;;3.22;2.30;;;;;;;19.99;58.68;100222.03;5032365;28;20214;-76
2022/05/03 10:44:44;;;;;;;4.70;2.50;;;;;;;20.35;56.40;100209.88;5032173;28;20204;-76
2022/05/03 10:47:12;;;;;;;7.35;3.20;;;;;;;20.51;57.57;100217.38;5032219;28;20196;-76
2022/05/03 10:50:17;;;;;;;3.08;2.60;;;;;;;20.90;55.39;100212.06;5032077;28;20196;-76
2022/05/03 10:52:47;;;;;;;6.10;2.67;;;;;;;21.33;54.32;100201.31;4997267;28;20203;-76
2022/05/03 10:55:15;;;;;;;4.25;2.90;;;;;;;20.76;54.05;100159.72;5031722;28;20314;-76
2022/05/03 10:58:14;;;;;;;10.88;2.80;;;;;;;21.55;53.04;100194.50;5031947;28;20715;-76
2022/05/03 11:01:04;;;;;;;3.08;2.78;;;;;;;20.81;53.94;100209.66;4970754;28;20217;-75
2022/05/03 11:03:31;;;;;;;4.40;2.80;;;;;;;19.38;57.08;100175.88;4921736;28;20202;-75
2022/05/03 11:06:35;;;;;;;8.88;3.22;;;;;;;19.40;59.39;100210.06;4970715;28;20202;-75
2022/05/03 11:09:10;;;;;;;7.30;3.58;;;;;;;20.31;57.56;100202.94;4970607;28;20626;-76
2022/05/03 11:12:00;;;;;;;4.75;2.85;;;;;;;20.93;55.95;100202.31;4970459;28;20225;-75
2022/05/03 11:15:05;;;;;;;5.15;2.95;;;;;;;20.72;56.02;100205.47;4922987;28;20241;-76
2022/05/03 11:17:31;;;;;;;4.68;3.17;;;;;;;21.52;54.89;100215.72;4970445;28;20209;-76
2022/05/03 11:20:02;;;;;;;2.80;2.70;;;;;;;21.05;53.95;100215.16;4970394;28;20194;-75
2022/05/03 11:22:32;;;;;;;9.60;2.90;;;;;;;21.11;54.38;100209.78;4986290;28;20212;-76
2022/05/03 11:25:06;;;;;;;4.60;3.00;;;;;;;20.43;55.41;100214.06;4989807;28;20237;-76
2022/05/03 11:27:33;;;;;;;3.60;2.80;;;;;;;19.33;57.50;100201.41;4996272;28;20194;-75
2022/05/03 11:30:01;;;;;;;4.10;3.05;;;;;;;19.46;56.67;100215.22;5003480;28;20644;-76
2022/05/03 11:32:34;;;;;;;4.10;2.72;;;;;;;20.25;56.49;100210.06;5002773;28;20261;-76
2022/05/03 11:35:13;;;;;;;5.13;2.80;;;;;;;20.36;55.89;100207.22;4992722;28;20213;-76
2022/05/03 11:37:49;;;;;;;4.25;3.08;;;;;;;20.73;54.93;100199.28;5009591;28;20631;-76
2022/05/03 11:40:20;;;;;;;6.13;3.03;;;;;;;19.86;55.12;100220.56;5031073;28;20254;-76
2022/05/03 11:42:47;;;;;;;5.00;3.40;;;;;;;19.88;55.94;100205.59;5031119;28;20204;-76
2022/05/03 11:45:15;;;;;;;5.25;2.97;;;;;;;19.84;56.65;100199.53;5031029;28;20636;-76
2022/05/03 11:47:47;;;;;;;8.23;3.22;;;;;;;19.51;57.29;100211.59;5031015;28;20254;-76
2022/05/03 11:55:58;;;;;;;8.05;3.72;;;;;;;19.98;57.40;100201.88;5030639;28;20224;-76
2022/05/03 11:56:04;;;;;;;3.90;3.33;;;;;;;19.75;56.53;100203.25;5030672;28;20243;-76
2022/05/03 11:58:33;;;;;;;3.95;3.42;;;;;;;19.56;58.01;100201.88;5030813;28;20200;-76
2022/05/03 12:01:02;;;;;;;13.07;3.75;;;;;;;19.60;57.68;100202.66;5030845;28;20208;-76
2022/05/03 12:03:44;;;;;;;9.25;3.63;;;;;;;19.25;59.38;100198.94;5030668;28;20206;-76
2022/05/03 12:06:11;;;;;;;37.65;17.65;;;;;;;19.54;60.38;100202.81;5030994;28;20208;-77
2022/05/03 12:08:39;;;;;;;5.25;4.10;;;;;;;19.59;63.23;100207.06;5031163;28;20195;-76
2022/05/03 12:11:17;;;;;;;5.20;3.83;;;;;;;19.10;61.37;100206.22;5030772;28;20331;-76
2022/05/03 12:13:44;;;;;;;11.45;3.60;;;;;;;19.20;60.98;100178.84;5030421;28;20200;-76